SAS812 BIKF-ENAL
Flight info
| Callsign | SAS812 |
|---|---|
| Flight time | 1h 54m |
| Altitude | 39000 |
| Route | LUTER3C LUTER DCT 64N010W DCT ISVIG/N0421F390 DCT TUMIM |
| Aircraft | A20N/M-SDE2E3FGHIJ1RWXY/LB1 |
Departure
| Time | 2026-04-25 15:47 |
|---|---|
| Airport | Keflavik International Airport (BIKF) |
Arrival
| Time | 2026-04-25 17:41 |
|---|---|
| Airport | Ålesund Airport (ENAL) |
| Time | Latitude | Longitude | Altitude | Speed | Heading |
|---|---|---|---|---|---|
| 2026-04-25 15:11 | 63.99291 | -22.61614 | 139 ft | 0 kts | 269° |
| 2026-04-25 15:36 | 63.99291 | -22.61594 | 142 ft | 2 kts | 269° |
| 2026-04-25 15:36 | 63.99291 | -22.61560 | 141 ft | 2 kts | 269° |
| 2026-04-25 15:36 | 63.99291 | -22.61538 | 141 ft | 1 kts | 269° |
| 2026-04-25 15:37 | 63.99293 | -22.61505 | 140 ft | 2 kts | 247° |
| 2026-04-25 15:37 | 63.99300 | -22.61474 | 139 ft | 2 kts | 229° |
| 2026-04-25 15:37 | 63.99311 | -22.61452 | 139 ft | 2 kts | 210° |
| 2026-04-25 15:37 | 63.99325 | -22.61439 | 139 ft | 2 kts | 190° |
| 2026-04-25 15:38 | 63.99334 | -22.61437 | 139 ft | 1 kts | 179° |
| 2026-04-25 15:38 | 63.99320 | -22.61438 | 139 ft | 5 kts | 180° |
| 2026-04-25 15:38 | 63.99276 | -22.61438 | 139 ft | 4 kts | 179° |
| 2026-04-25 15:38 | 63.99262 | -22.61438 | 139 ft | 0 kts | 179° |
| 2026-04-25 15:42 | 63.99250 | -22.61439 | 139 ft | 3 kts | 181° |
| 2026-04-25 15:42 | 63.99211 | -22.61438 | 139 ft | 7 kts | 173° |
| 2026-04-25 15:43 | 63.99175 | -22.61342 | 139 ft | 5 kts | 94° |
| 2026-04-25 15:43 | 63.99174 | -22.61292 | 140 ft | 0 kts | 91° |
| 2026-04-25 15:43 | 63.99174 | -22.61282 | 140 ft | 2 kts | 91° |
| 2026-04-25 15:44 | 63.99173 | -22.61218 | 142 ft | 6 kts | 92° |
| 2026-04-25 15:44 | 63.99172 | -22.61129 | 143 ft | 5 kts | 89° |
| 2026-04-25 15:44 | 63.99172 | -22.61038 | 143 ft | 6 kts | 90° |
| 2026-04-25 15:44 | 63.99172 | -22.60939 | 143 ft | 6 kts | 89° |
| 2026-04-25 15:45 | 63.99173 | -22.60833 | 143 ft | 6 kts | 88° |
| 2026-04-25 15:45 | 63.99173 | -22.60725 | 143 ft | 7 kts | 90° |
| 2026-04-25 15:45 | 63.99174 | -22.60621 | 143 ft | 6 kts | 88° |
| 2026-04-25 15:45 | 63.99168 | -22.60567 | 143 ft | 5 kts | 146° |
| 2026-04-25 15:46 | 63.99149 | -22.60560 | 143 ft | 2 kts | 176° |
| 2026-04-25 15:46 | 63.98909 | -22.60554 | 148 ft | 73 kts | 179° |
| 2026-04-25 15:46 | 63.98157 | -22.60552 | 160 ft | 138 kts | 179° |
| 2026-04-25 15:46 | 63.97149 | -22.60654 | 691 ft | 149 kts | 179° |
| 2026-04-25 15:47 | 63.96138 | -22.60787 | 1534 ft | 147 kts | 175° |
| 2026-04-25 15:47 | 63.95185 | -22.60088 | 2190 ft | 156 kts | 139° |
| 2026-04-25 15:47 | 63.94624 | -22.57881 | 2788 ft | 176 kts | 115° |
| 2026-04-25 15:47 | 63.94176 | -22.55166 | 3367 ft | 192 kts | 116° |
| 2026-04-25 15:48 | 63.93639 | -22.52176 | 3875 ft | 216 kts | 116° |
| 2026-04-25 15:48 | 63.93035 | -22.48916 | 4513 ft | 235 kts | 116° |
| 2026-04-25 15:48 | 63.92370 | -22.45384 | 5167 ft | 254 kts | 115° |
| 2026-04-25 15:48 | 63.91659 | -22.41643 | 5784 ft | 267 kts | 115° |
| 2026-04-25 15:49 | 63.90909 | -22.37708 | 6147 ft | 274 kts | 114° |
| 2026-04-25 15:49 | 63.90139 | -22.33691 | 6910 ft | 283 kts | 115° |
| 2026-04-25 15:49 | 63.89365 | -22.29655 | 7998 ft | 282 kts | 115° |
| 2026-04-25 15:49 | 63.88591 | -22.25640 | 8944 ft | 286 kts | 115° |
| 2026-04-25 15:50 | 63.87784 | -22.21473 | 9854 ft | 291 kts | 115° |
| 2026-04-25 15:50 | 63.86965 | -22.17269 | 10702 ft | 297 kts | 115° |
| 2026-04-25 15:50 | 63.86113 | -22.12913 | 11245 ft | 314 kts | 115° |
| 2026-04-25 15:50 | 63.85216 | -22.08335 | 11968 ft | 322 kts | 115° |
| 2026-04-25 15:51 | 63.84341 | -22.03693 | 12903 ft | 324 kts | 109° |
| 2026-04-25 15:51 | 63.83997 | -22.00431 | 13481 ft | 327 kts | 97° |
| 2026-04-25 15:51 | 63.84150 | -21.93558 | 14505 ft | 334 kts | 81° |
| 2026-04-25 15:51 | 63.84569 | -21.88384 | 15286 ft | 339 kts | 79° |
| 2026-04-25 15:52 | 63.85016 | -21.83116 | 15995 ft | 345 kts | 79° |
| 2026-04-25 15:52 | 63.85451 | -21.77779 | 16780 ft | 349 kts | 79° |
| 2026-04-25 15:52 | 63.85869 | -21.72420 | 17497 ft | 354 kts | 80° |
| 2026-04-25 15:52 | 63.86289 | -21.66894 | 18181 ft | 358 kts | 80° |
| 2026-04-25 15:53 | 63.86706 | -21.61365 | 18890 ft | 362 kts | 80° |
| 2026-04-25 15:53 | 63.87130 | -21.55690 | 19571 ft | 367 kts | 80° |
| 2026-04-25 15:53 | 63.87553 | -21.49996 | 20375 ft | 367 kts | 80° |
| 2026-04-25 15:53 | 63.88026 | -21.44323 | 21059 ft | 369 kts | 76° |
| 2026-04-25 15:54 | 63.88792 | -21.38764 | 21697 ft | 374 kts | 68° |
| 2026-04-25 15:54 | 63.89867 | -21.33451 | 22337 ft | 377 kts | 63° |
| 2026-04-25 15:54 | 63.91079 | -21.28170 | 22985 ft | 380 kts | 62° |
| 2026-04-25 15:54 | 63.92323 | -21.22852 | 23579 ft | 384 kts | 62° |
| 2026-04-25 15:55 | 63.93557 | -21.17534 | 24160 ft | 388 kts | 62° |
| 2026-04-25 15:55 | 63.94815 | -21.12053 | 24698 ft | 392 kts | 62° |
| 2026-04-25 15:55 | 63.96075 | -21.06522 | 25241 ft | 396 kts | 62° |
| 2026-04-25 15:55 | 63.97324 | -21.01021 | 25793 ft | 400 kts | 62° |
| 2026-04-25 15:56 | 63.98595 | -20.95394 | 26355 ft | 403 kts | 62° |
| 2026-04-25 15:56 | 63.99879 | -20.89684 | 26867 ft | 406 kts | 62° |
| 2026-04-25 15:56 | 64.01155 | -20.83998 | 27354 ft | 410 kts | 62° |
| 2026-04-25 15:56 | 64.02465 | -20.78153 | 27855 ft | 413 kts | 62° |
| 2026-04-25 15:57 | 64.03760 | -20.72359 | 28366 ft | 416 kts | 62° |
| 2026-04-25 15:57 | 64.05063 | -20.66497 | 28848 ft | 419 kts | 62° |
| 2026-04-25 15:57 | 64.06382 | -20.60546 | 29295 ft | 422 kts | 62° |
| 2026-04-25 15:57 | 64.07710 | -20.54554 | 29755 ft | 425 kts | 62° |
| 2026-04-25 15:58 | 64.09036 | -20.48531 | 30243 ft | 427 kts | 63° |
| 2026-04-25 15:58 | 64.10193 | -20.42355 | 30652 ft | 430 kts | 69° |
| 2026-04-25 15:58 | 64.11112 | -20.35838 | 31029 ft | 434 kts | 74° |
| 2026-04-25 15:58 | 64.11758 | -20.29132 | 31415 ft | 436 kts | 81° |
| 2026-04-25 15:59 | 64.12122 | -20.22225 | 31794 ft | 438 kts | 86° |
| 2026-04-25 15:59 | 64.12302 | -20.15230 | 32178 ft | 440 kts | 88° |
| 2026-04-25 15:59 | 64.12440 | -20.08316 | 32579 ft | 441 kts | 88° |
| 2026-04-25 15:59 | 64.12577 | -20.01274 | 32932 ft | 444 kts | 88° |
| 2026-04-25 16:00 | 64.12714 | -19.94215 | 33212 ft | 446 kts | 88° |
| 2026-04-25 16:00 | 64.12807 | -19.89588 | 33417 ft | 448 kts | 88° |
| 2026-04-25 16:00 | 64.12997 | -19.80045 | 33826 ft | 450 kts | 88° |
| 2026-04-25 16:00 | 64.13138 | -19.72890 | 34140 ft | 451 kts | 88° |
| 2026-04-25 16:01 | 64.13277 | -19.65799 | 34566 ft | 450 kts | 88° |
| 2026-04-25 16:01 | 64.13413 | -19.58675 | 34942 ft | 447 kts | 89° |
| 2026-04-25 16:01 | 64.13545 | -19.51604 | 35276 ft | 447 kts | 89° |
| 2026-04-25 16:01 | 64.13675 | -19.44525 | 35580 ft | 446 kts | 89° |
| 2026-04-25 16:02 | 64.13798 | -19.37487 | 35846 ft | 446 kts | 89° |
| 2026-04-25 16:02 | 64.13919 | -19.30406 | 36131 ft | 446 kts | 90° |
| 2026-04-25 16:02 | 64.14036 | -19.23377 | 36390 ft | 445 kts | 90° |
| 2026-04-25 16:02 | 64.14150 | -19.16360 | 36689 ft | 445 kts | 90° |
| 2026-04-25 16:03 | 64.14260 | -19.09317 | 37021 ft | 444 kts | 90° |
| 2026-04-25 16:03 | 64.14368 | -19.02206 | 37341 ft | 444 kts | 90° |
| 2026-04-25 16:03 | 64.14471 | -18.95183 | 37662 ft | 443 kts | 90° |
| 2026-04-25 16:03 | 64.14571 | -18.88191 | 37983 ft | 442 kts | 90° |
| 2026-04-25 16:04 | 64.14667 | -18.81188 | 38274 ft | 442 kts | 90° |
| 2026-04-25 16:04 | 64.14759 | -18.74259 | 38533 ft | 441 kts | 90° |
| 2026-04-25 16:04 | 64.14848 | -18.67268 | 38745 ft | 442 kts | 90° |
| 2026-04-25 16:04 | 64.14936 | -18.60203 | 38940 ft | 442 kts | 90° |
| 2026-04-25 16:05 | 64.15018 | -18.53252 | 39140 ft | 442 kts | 90° |
| 2026-04-25 16:05 | 64.15098 | -18.46238 | 39139 ft | 442 kts | 90° |
| 2026-04-25 16:06 | 64.15319 | -18.25211 | 39158 ft | 442 kts | 91° |
| 2026-04-25 16:06 | 64.15449 | -18.11125 | 39153 ft | 443 kts | 91° |
| 2026-04-25 16:07 | 64.15565 | -17.97156 | 39135 ft | 442 kts | 91° |
| 2026-04-25 16:07 | 64.15668 | -17.83103 | 39156 ft | 443 kts | 91° |
| 2026-04-25 16:08 | 64.15758 | -17.69048 | 39113 ft | 442 kts | 91° |
| 2026-04-25 16:08 | 64.15834 | -17.55077 | 39143 ft | 441 kts | 91° |
| 2026-04-25 16:09 | 64.15897 | -17.41022 | 39139 ft | 442 kts | 91° |
| 2026-04-25 16:09 | 64.15946 | -17.26988 | 39148 ft | 442 kts | 92° |
| 2026-04-25 16:10 | 64.15982 | -17.13024 | 39156 ft | 441 kts | 92° |
| 2026-04-25 16:10 | 64.16003 | -16.99018 | 39160 ft | 442 kts | 92° |
| 2026-04-25 16:11 | 64.16012 | -16.84956 | 39108 ft | 442 kts | 92° |
| 2026-04-25 16:11 | 64.16007 | -16.70949 | 39096 ft | 442 kts | 92° |
| 2026-04-25 16:12 | 64.15987 | -16.56969 | 39083 ft | 443 kts | 92° |
| 2026-04-25 16:12 | 64.15957 | -16.42850 | 39129 ft | 443 kts | 92° |
| 2026-04-25 16:13 | 64.15911 | -16.28798 | 39127 ft | 444 kts | 94° |
| 2026-04-25 16:13 | 64.15852 | -16.14681 | 39157 ft | 443 kts | 94° |
| 2026-04-25 16:14 | 64.15779 | -16.00621 | 39176 ft | 443 kts | 94° |
| 2026-04-25 16:14 | 64.15695 | -15.86669 | 39168 ft | 442 kts | 94° |
| 2026-04-25 16:15 | 64.15595 | -15.72565 | 39221 ft | 442 kts | 94° |
| 2026-04-25 16:15 | 64.15482 | -15.58572 | 39252 ft | 442 kts | 94° |
| 2026-04-25 16:16 | 64.15355 | -15.44539 | 39259 ft | 442 kts | 94° |
| 2026-04-25 16:16 | 64.15215 | -15.30520 | 39260 ft | 442 kts | 95° |
| 2026-04-25 16:17 | 64.15063 | -15.16510 | 39236 ft | 442 kts | 95° |
| 2026-04-25 16:17 | 64.14897 | -15.02507 | 39246 ft | 441 kts | 95° |
| 2026-04-25 16:18 | 64.14716 | -14.88535 | 39250 ft | 442 kts | 95° |
| 2026-04-25 16:18 | 64.14522 | -14.74462 | 39243 ft | 444 kts | 95° |
| 2026-04-25 16:19 | 64.14316 | -14.60437 | 39265 ft | 443 kts | 95° |
| 2026-04-25 16:19 | 64.14092 | -14.46320 | 39244 ft | 444 kts | 94° |
| 2026-04-25 16:20 | 64.13738 | -14.25271 | 39236 ft | 443 kts | 95° |
| 2026-04-25 16:21 | 64.13348 | -14.04170 | 39266 ft | 443 kts | 95° |
| 2026-04-25 16:21 | 64.13074 | -13.90174 | 39252 ft | 443 kts | 95° |
| 2026-04-25 16:22 | 64.12785 | -13.76130 | 39250 ft | 443 kts | 95° |
| 2026-04-25 16:22 | 64.12483 | -13.62108 | 39256 ft | 442 kts | 95° |
| 2026-04-25 16:23 | 64.12172 | -13.48209 | 39255 ft | 442 kts | 95° |
| 2026-04-25 16:23 | 64.11842 | -13.34150 | 39281 ft | 443 kts | 96° |
| 2026-04-25 16:24 | 64.11498 | -13.20106 | 39268 ft | 444 kts | 96° |
| 2026-04-25 16:24 | 64.11143 | -13.06142 | 39279 ft | 444 kts | 96° |
| 2026-04-25 16:25 | 64.10769 | -12.91996 | 39297 ft | 443 kts | 96° |
| 2026-04-25 16:25 | 64.10390 | -12.78042 | 39288 ft | 442 kts | 96° |
| 2026-04-25 16:26 | 64.09996 | -12.64082 | 39289 ft | 442 kts | 96° |
| 2026-04-25 16:26 | 64.09586 | -12.50123 | 39290 ft | 444 kts | 96° |
| 2026-04-25 16:27 | 64.09164 | -12.36146 | 39287 ft | 443 kts | 96° |
| 2026-04-25 16:27 | 64.08729 | -12.22178 | 39285 ft | 443 kts | 97° |
| 2026-04-25 16:28 | 64.08279 | -12.08219 | 39289 ft | 444 kts | 97° |
| 2026-04-25 16:28 | 64.07813 | -11.94155 | 39289 ft | 443 kts | 97° |
| 2026-04-25 16:29 | 64.07336 | -11.80177 | 39301 ft | 444 kts | 97° |
| 2026-04-25 16:29 | 64.06845 | -11.66208 | 39297 ft | 444 kts | 96° |
| 2026-04-25 16:30 | 64.06340 | -11.52149 | 39298 ft | 444 kts | 97° |
| 2026-04-25 16:30 | 64.05821 | -11.38149 | 39304 ft | 448 kts | 96° |
| 2026-04-25 16:31 | 64.05281 | -11.23946 | 39305 ft | 454 kts | 97° |
| 2026-04-25 16:31 | 64.04722 | -11.09625 | 39308 ft | 456 kts | 97° |
| 2026-04-25 16:32 | 64.04150 | -10.95285 | 39308 ft | 456 kts | 97° |
| 2026-04-25 16:32 | 64.03561 | -10.80951 | 39312 ft | 457 kts | 97° |
| 2026-04-25 16:33 | 64.02959 | -10.66620 | 39311 ft | 457 kts | 97° |
| 2026-04-25 16:33 | 64.02339 | -10.52159 | 39314 ft | 458 kts | 97° |
| 2026-04-25 16:34 | 64.01709 | -10.37808 | 39311 ft | 456 kts | 97° |
| 2026-04-25 16:34 | 64.01070 | -10.23548 | 39311 ft | 457 kts | 98° |
| 2026-04-25 16:35 | 64.00407 | -10.09132 | 39312 ft | 458 kts | 98° |
| 2026-04-25 16:35 | 63.99748 | -9.94798 | 39318 ft | 458 kts | 97° |
| 2026-04-25 16:36 | 63.99165 | -9.80393 | 39328 ft | 460 kts | 96° |
| 2026-04-25 16:36 | 63.98578 | -9.65948 | 39330 ft | 460 kts | 96° |
| 2026-04-25 16:37 | 63.97973 | -9.51508 | 39334 ft | 459 kts | 96° |
| 2026-04-25 16:37 | 63.97349 | -9.37151 | 39337 ft | 461 kts | 96° |
| 2026-04-25 16:38 | 63.96709 | -9.22695 | 39335 ft | 461 kts | 97° |
| 2026-04-25 16:38 | 63.96051 | -9.08208 | 39332 ft | 461 kts | 97° |
| 2026-04-25 16:39 | 63.95381 | -8.93766 | 39338 ft | 461 kts | 97° |
| 2026-04-25 16:39 | 63.94699 | -8.79383 | 39338 ft | 460 kts | 97° |
| 2026-04-25 16:40 | 63.94001 | -8.64958 | 39338 ft | 460 kts | 97° |
| 2026-04-25 16:40 | 63.93289 | -8.50588 | 39333 ft | 461 kts | 97° |
| 2026-04-25 16:41 | 63.92565 | -8.36259 | 39340 ft | 461 kts | 97° |
| 2026-04-25 16:41 | 63.91450 | -8.14666 | 39329 ft | 461 kts | 97° |
| 2026-04-25 16:42 | 63.90684 | -8.00236 | 39336 ft | 461 kts | 97° |
| 2026-04-25 16:42 | 63.89910 | -7.85921 | 39345 ft | 462 kts | 97° |
| 2026-04-25 16:43 | 63.89113 | -7.71434 | 39363 ft | 463 kts | 97° |
| 2026-04-25 16:43 | 63.88306 | -7.57046 | 39361 ft | 463 kts | 97° |
| 2026-04-25 16:44 | 63.87484 | -7.42666 | 39364 ft | 463 kts | 97° |
| 2026-04-25 16:44 | 63.86645 | -7.28209 | 39355 ft | 462 kts | 98° |
| 2026-04-25 16:45 | 63.85799 | -7.13906 | 39365 ft | 461 kts | 98° |
| 2026-04-25 16:45 | 63.84936 | -6.99583 | 39357 ft | 461 kts | 98° |
| 2026-04-25 16:46 | 63.84056 | -6.85214 | 39346 ft | 462 kts | 98° |
| 2026-04-25 16:46 | 63.83313 | -6.73258 | 39346 ft | 461 kts | 97° |
| 2026-04-25 16:47 | 63.82258 | -6.56582 | 39333 ft | 462 kts | 97° |
| 2026-04-25 16:47 | 63.81336 | -6.42215 | 39328 ft | 462 kts | 97° |
| 2026-04-25 16:48 | 63.80403 | -6.27953 | 39330 ft | 463 kts | 98° |
| 2026-04-25 16:48 | 63.79448 | -6.13558 | 39333 ft | 464 kts | 98° |
| 2026-04-25 16:49 | 63.78484 | -5.99259 | 39338 ft | 463 kts | 98° |
| 2026-04-25 16:49 | 63.77505 | -5.84953 | 39346 ft | 462 kts | 98° |
| 2026-04-25 16:50 | 63.76512 | -5.70666 | 39347 ft | 463 kts | 98° |
| 2026-04-25 16:50 | 63.75502 | -5.56362 | 39351 ft | 465 kts | 98° |
| 2026-04-25 16:51 | 63.74475 | -5.42008 | 39346 ft | 464 kts | 97° |
| 2026-04-25 16:51 | 63.73614 | -5.30140 | 39359 ft | 465 kts | 98° |
| 2026-04-25 16:52 | 63.72384 | -5.13420 | 39350 ft | 466 kts | 98° |
| 2026-04-25 16:52 | 63.71316 | -4.99096 | 39347 ft | 465 kts | 98° |
| 2026-04-25 16:53 | 63.69684 | -4.77633 | 39356 ft | 465 kts | 98° |
| 2026-04-25 16:54 | 63.68574 | -4.63301 | 39352 ft | 465 kts | 98° |
| 2026-04-25 16:54 | 63.67457 | -4.49048 | 39353 ft | 467 kts | 98° |
| 2026-04-25 16:55 | 63.66318 | -4.34705 | 39364 ft | 467 kts | 98° |
| 2026-04-25 16:55 | 63.65162 | -4.20343 | 39373 ft | 468 kts | 99° |
| 2026-04-25 16:56 | 63.63995 | -4.06031 | 39347 ft | 467 kts | 98° |
| 2026-04-25 16:56 | 63.62814 | -3.91732 | 39355 ft | 468 kts | 98° |
| 2026-04-25 16:57 | 63.61618 | -3.77438 | 39339 ft | 466 kts | 98° |
| 2026-04-25 16:57 | 63.60403 | -3.63118 | 39343 ft | 467 kts | 98° |
| 2026-04-25 16:58 | 63.59177 | -3.48848 | 39347 ft | 467 kts | 98° |
| 2026-04-25 16:58 | 63.57938 | -3.34590 | 39341 ft | 468 kts | 99° |
| 2026-04-25 16:59 | 63.56689 | -3.20358 | 39334 ft | 468 kts | 98° |
| 2026-04-25 16:59 | 63.55420 | -3.06108 | 39332 ft | 468 kts | 99° |
| 2026-04-25 17:00 | 63.54145 | -2.91945 | 39330 ft | 468 kts | 98° |
| 2026-04-25 17:00 | 63.52850 | -2.77741 | 39332 ft | 467 kts | 98° |
| 2026-04-25 17:01 | 63.51535 | -2.63480 | 39335 ft | 469 kts | 98° |
| 2026-04-25 17:01 | 63.50211 | -2.49299 | 39340 ft | 469 kts | 98° |
| 2026-04-25 17:02 | 63.48871 | -2.35113 | 39330 ft | 468 kts | 98° |
| 2026-04-25 17:02 | 63.47519 | -2.20939 | 39340 ft | 469 kts | 99° |
| 2026-04-25 17:03 | 63.46144 | -2.06682 | 39337 ft | 469 kts | 99° |
| 2026-04-25 17:03 | 63.44761 | -1.92525 | 39341 ft | 469 kts | 99° |
| 2026-04-25 17:04 | 63.43361 | -1.78356 | 39331 ft | 470 kts | 98° |
| 2026-04-25 17:04 | 63.41949 | -1.64199 | 39331 ft | 469 kts | 98° |
| 2026-04-25 17:05 | 63.40527 | -1.50104 | 39338 ft | 471 kts | 98° |
| 2026-04-25 17:05 | 63.38347 | -1.28775 | 39316 ft | 470 kts | 99° |
| 2026-04-25 17:06 | 63.36890 | -1.14725 | 39316 ft | 470 kts | 99° |
| 2026-04-25 17:06 | 63.35406 | -1.00553 | 39320 ft | 471 kts | 99° |
| 2026-04-25 17:07 | 63.33906 | -0.86374 | 39314 ft | 472 kts | 99° |
| 2026-04-25 17:07 | 63.32397 | -0.72260 | 39313 ft | 471 kts | 99° |
| 2026-04-25 17:08 | 63.30882 | -0.58216 | 39310 ft | 471 kts | 99° |
| 2026-04-25 17:08 | 63.29337 | -0.44076 | 39307 ft | 472 kts | 98° |
| 2026-04-25 17:09 | 63.27787 | -0.30000 | 39299 ft | 472 kts | 99° |
| 2026-04-25 17:09 | 63.26221 | -0.15931 | 39301 ft | 473 kts | 99° |
| 2026-04-25 17:10 | 63.24627 | -0.01767 | 39299 ft | 474 kts | 99° |
| 2026-04-25 17:10 | 63.23021 | 0.12366 | 39292 ft | 474 kts | 99° |
| 2026-04-25 17:11 | 63.21417 | 0.26374 | 39293 ft | 473 kts | 99° |
| 2026-04-25 17:11 | 63.19788 | 0.40437 | 39294 ft | 474 kts | 99° |
| 2026-04-25 17:12 | 63.18146 | 0.54476 | 39286 ft | 474 kts | 99° |
| 2026-04-25 17:12 | 63.16489 | 0.68545 | 39279 ft | 475 kts | 100° |
| 2026-04-25 17:13 | 63.15096 | 0.80239 | 39277 ft | 475 kts | 100° |
| 2026-04-25 17:13 | 63.13116 | 0.96681 | 39164 ft | 473 kts | 100° |
| 2026-04-25 17:14 | 63.12270 | 1.03663 | 38308 ft | 479 kts | 99° |
| 2026-04-25 17:14 | 63.11406 | 1.10769 | 37192 ft | 485 kts | 99° |
| 2026-04-25 17:14 | 63.10530 | 1.17941 | 36304 ft | 488 kts | 99° |
| 2026-04-25 17:14 | 63.09649 | 1.25117 | 35528 ft | 491 kts | 99° |
| 2026-04-25 17:15 | 63.08747 | 1.32415 | 34769 ft | 494 kts | 98° |
| 2026-04-25 17:15 | 63.07851 | 1.39632 | 33980 ft | 497 kts | 98° |
| 2026-04-25 17:15 | 63.06936 | 1.46971 | 33254 ft | 497 kts | 98° |
| 2026-04-25 17:15 | 63.06019 | 1.54284 | 32692 ft | 494 kts | 98° |
| 2026-04-25 17:16 | 63.05106 | 1.61528 | 32198 ft | 489 kts | 98° |
| 2026-04-25 17:16 | 63.04198 | 1.68698 | 31724 ft | 485 kts | 99° |
| 2026-04-25 17:16 | 63.03310 | 1.75717 | 31236 ft | 481 kts | 98° |
| 2026-04-25 17:16 | 63.02404 | 1.82797 | 30746 ft | 477 kts | 98° |
| 2026-04-25 17:17 | 63.01518 | 1.89699 | 30293 ft | 473 kts | 98° |
| 2026-04-25 17:17 | 63.00623 | 1.96656 | 29847 ft | 468 kts | 98° |
| 2026-04-25 17:17 | 62.99746 | 2.03442 | 29408 ft | 465 kts | 98° |
| 2026-04-25 17:17 | 62.98862 | 2.10251 | 28915 ft | 462 kts | 97° |
| 2026-04-25 17:18 | 62.97990 | 2.16952 | 28446 ft | 459 kts | 97° |
| 2026-04-25 17:18 | 62.97115 | 2.23624 | 28009 ft | 455 kts | 97° |
| 2026-04-25 17:18 | 62.96243 | 2.30267 | 27568 ft | 451 kts | 97° |
| 2026-04-25 17:18 | 62.95369 | 2.36892 | 27106 ft | 449 kts | 97° |
| 2026-04-25 17:19 | 62.94506 | 2.43405 | 26622 ft | 447 kts | 96° |
| 2026-04-25 17:19 | 62.93645 | 2.49880 | 26170 ft | 444 kts | 96° |
| 2026-04-25 17:19 | 62.92780 | 2.56366 | 25707 ft | 441 kts | 96° |
| 2026-04-25 17:19 | 62.91927 | 2.62722 | 25325 ft | 437 kts | 96° |
| 2026-04-25 17:20 | 62.91073 | 2.69061 | 24877 ft | 435 kts | 97° |
| 2026-04-25 17:20 | 62.90225 | 2.75360 | 24416 ft | 434 kts | 97° |
| 2026-04-25 17:20 | 62.89362 | 2.81709 | 23984 ft | 431 kts | 96° |
| 2026-04-25 17:20 | 62.88519 | 2.87905 | 23523 ft | 429 kts | 96° |
| 2026-04-25 17:21 | 62.87666 | 2.94149 | 23111 ft | 425 kts | 97° |
| 2026-04-25 17:21 | 62.86821 | 3.00301 | 22725 ft | 421 kts | 96° |
| 2026-04-25 17:21 | 62.85987 | 3.06343 | 22301 ft | 418 kts | 96° |
| 2026-04-25 17:21 | 62.85146 | 3.12422 | 21885 ft | 415 kts | 96° |
| 2026-04-25 17:22 | 62.84310 | 3.18447 | 21476 ft | 412 kts | 96° |
| 2026-04-25 17:22 | 62.83765 | 3.22365 | 21170 ft | 411 kts | 96° |
| 2026-04-25 17:22 | 62.82661 | 3.30283 | 20640 ft | 406 kts | 96° |
| 2026-04-25 17:22 | 62.81836 | 3.36169 | 20231 ft | 403 kts | 96° |
| 2026-04-25 17:23 | 62.81018 | 3.41980 | 19813 ft | 400 kts | 96° |
| 2026-04-25 17:23 | 62.80215 | 3.47662 | 19423 ft | 396 kts | 97° |
| 2026-04-25 17:23 | 62.79407 | 3.53361 | 19021 ft | 393 kts | 97° |
| 2026-04-25 17:23 | 62.78604 | 3.59007 | 18634 ft | 389 kts | 96° |
| 2026-04-25 17:24 | 62.77806 | 3.64603 | 18246 ft | 386 kts | 97° |
| 2026-04-25 17:24 | 62.77005 | 3.70207 | 17871 ft | 383 kts | 98° |
| 2026-04-25 17:24 | 62.76223 | 3.75674 | 17446 ft | 381 kts | 98° |
| 2026-04-25 17:24 | 62.75431 | 3.81172 | 17045 ft | 378 kts | 98° |
| 2026-04-25 17:25 | 62.74649 | 3.86577 | 16677 ft | 375 kts | 98° |
| 2026-04-25 17:25 | 62.73867 | 3.91960 | 16313 ft | 371 kts | 99° |
| 2026-04-25 17:25 | 62.73090 | 3.97300 | 15922 ft | 368 kts | 99° |
| 2026-04-25 17:25 | 62.72325 | 4.02543 | 15541 ft | 365 kts | 99° |
| 2026-04-25 17:26 | 62.71561 | 4.07764 | 15157 ft | 362 kts | 99° |
| 2026-04-25 17:26 | 62.70800 | 4.12953 | 14791 ft | 358 kts | 99° |
| 2026-04-25 17:26 | 62.70043 | 4.18089 | 14429 ft | 355 kts | 100° |
| 2026-04-25 17:26 | 62.69299 | 4.23111 | 14184 ft | 345 kts | 100° |
| 2026-04-25 17:27 | 62.68562 | 4.28056 | 14191 ft | 342 kts | 99° |
| 2026-04-25 17:27 | 62.67845 | 4.32895 | 14079 ft | 339 kts | 99° |
| 2026-04-25 17:27 | 62.67117 | 4.37798 | 13447 ft | 346 kts | 100° |
| 2026-04-25 17:27 | 62.66627 | 4.41123 | 13007 ft | 350 kts | 100° |
| 2026-04-25 17:28 | 62.65623 | 4.47849 | 12308 ft | 350 kts | 101° |
| 2026-04-25 17:28 | 62.64874 | 4.52834 | 11875 ft | 347 kts | 101° |
| 2026-04-25 17:28 | 62.64133 | 4.57739 | 11473 ft | 343 kts | 101° |
| 2026-04-25 17:28 | 62.63385 | 4.62648 | 11094 ft | 338 kts | 101° |
| 2026-04-25 17:29 | 62.62666 | 4.67390 | 10730 ft | 333 kts | 102° |
| 2026-04-25 17:29 | 62.61946 | 4.72116 | 10361 ft | 328 kts | 102° |
| 2026-04-25 17:29 | 62.61241 | 4.76746 | 10117 ft | 319 kts | 103° |
| 2026-04-25 17:29 | 62.60550 | 4.81244 | 9882 ft | 310 kts | 102° |
| 2026-04-25 17:30 | 62.59880 | 4.85615 | 9609 ft | 303 kts | 102° |
| 2026-04-25 17:30 | 62.59224 | 4.89892 | 9302 ft | 299 kts | 103° |
| 2026-04-25 17:30 | 62.58570 | 4.94151 | 8910 ft | 297 kts | 102° |
| 2026-04-25 17:30 | 62.57926 | 4.98343 | 8564 ft | 293 kts | 103° |
| 2026-04-25 17:31 | 62.57289 | 5.02470 | 8233 ft | 289 kts | 103° |
| 2026-04-25 17:31 | 62.56652 | 5.06584 | 7908 ft | 285 kts | 103° |
| 2026-04-25 17:31 | 62.56031 | 5.10581 | 7594 ft | 280 kts | 104° |
| 2026-04-25 17:31 | 62.55409 | 5.14578 | 7280 ft | 276 kts | 103° |
| 2026-04-25 17:32 | 62.54803 | 5.18457 | 6977 ft | 272 kts | 104° |
| 2026-04-25 17:32 | 62.54201 | 5.22308 | 6676 ft | 269 kts | 104° |
| 2026-04-25 17:32 | 62.53601 | 5.26129 | 6367 ft | 265 kts | 104° |
| 2026-04-25 17:32 | 62.53011 | 5.29883 | 6069 ft | 262 kts | 104° |
| 2026-04-25 17:33 | 62.52433 | 5.33563 | 5770 ft | 259 kts | 104° |
| 2026-04-25 17:33 | 62.51852 | 5.37238 | 5479 ft | 256 kts | 104° |
| 2026-04-25 17:33 | 62.51280 | 5.40861 | 5178 ft | 255 kts | 104° |
| 2026-04-25 17:33 | 62.50713 | 5.44453 | 4879 ft | 254 kts | 104° |
| 2026-04-25 17:34 | 62.50140 | 5.48053 | 4604 ft | 253 kts | 104° |
| 2026-04-25 17:34 | 62.49576 | 5.51594 | 4330 ft | 250 kts | 104° |
| 2026-04-25 17:34 | 62.49013 | 5.55111 | 4179 ft | 240 kts | 104° |
| 2026-04-25 17:34 | 62.48483 | 5.58413 | 4100 ft | 229 kts | 104° |
| 2026-04-25 17:35 | 62.47973 | 5.61595 | 4034 ft | 218 kts | 103° |
| 2026-04-25 17:35 | 62.47491 | 5.64600 | 3951 ft | 207 kts | 103° |
| 2026-04-25 17:35 | 62.47071 | 5.67439 | 3962 ft | 190 kts | 94° |
| 2026-04-25 17:35 | 62.47191 | 5.70158 | 3833 ft | 182 kts | 67° |
| 2026-04-25 17:36 | 62.47654 | 5.72670 | 3588 ft | 178 kts | 59° |
| 2026-04-25 17:36 | 62.48186 | 5.75040 | 3447 ft | 175 kts | 58° |
| 2026-04-25 17:36 | 62.48713 | 5.77366 | 3371 ft | 167 kts | 58° |
| 2026-04-25 17:36 | 62.49209 | 5.79601 | 3270 ft | 166 kts | 59° |
| 2026-04-25 17:37 | 62.49706 | 5.81879 | 3115 ft | 167 kts | 59° |
| 2026-04-25 17:37 | 62.50193 | 5.84140 | 2843 ft | 165 kts | 59° |
| 2026-04-25 17:37 | 62.50671 | 5.86364 | 2595 ft | 162 kts | 60° |
| 2026-04-25 17:37 | 62.51132 | 5.88511 | 2363 ft | 158 kts | 59° |
| 2026-04-25 17:38 | 62.51594 | 5.90655 | 2130 ft | 154 kts | 59° |
| 2026-04-25 17:38 | 62.51893 | 5.92036 | 1974 ft | 149 kts | 59° |
| 2026-04-25 17:38 | 62.52445 | 5.94598 | 1692 ft | 136 kts | 58° |
| 2026-04-25 17:38 | 62.52848 | 5.96447 | 1522 ft | 135 kts | 59° |
| 2026-04-25 17:39 | 62.53252 | 5.98300 | 1291 ft | 135 kts | 60° |
| 2026-04-25 17:39 | 62.53647 | 6.00121 | 1097 ft | 134 kts | 60° |
| 2026-04-25 17:39 | 62.54049 | 6.01949 | 879 ft | 133 kts | 59° |
| 2026-04-25 17:39 | 62.54425 | 6.03732 | 706 ft | 130 kts | 58° |
| 2026-04-25 17:40 | 62.54819 | 6.05482 | 494 ft | 128 kts | 59° |
| 2026-04-25 17:40 | 62.55201 | 6.07225 | 307 ft | 129 kts | 58° |
| 2026-04-25 17:40 | 62.55584 | 6.08940 | 98 ft | 125 kts | 60° |
| 2026-04-25 17:40 | 62.55922 | 6.10472 | 65 ft | 78 kts | 64° |
| 2026-04-25 17:41 | 62.56067 | 6.11168 | 70 ft | 36 kts | 62° |
| 2026-04-25 17:41 | 62.56119 | 6.11478 | 69 ft | 12 kts | 116° |
| 2026-04-25 17:41 | 62.56097 | 6.11525 | 69 ft | 0 kts | 153° |
| 2026-04-25 17:41 | 62.56086 | 6.11534 | 69 ft | 2 kts | 158° |
| 2026-04-25 17:42 | 62.56063 | 6.11551 | 69 ft | 4 kts | 168° |
| 2026-04-25 17:42 | 62.56040 | 6.11521 | 70 ft | 3 kts | 236° |
| 2026-04-25 17:42 | 62.56026 | 6.11471 | 71 ft | 4 kts | 238° |
| 2026-04-25 17:42 | 62.56002 | 6.11418 | 71 ft | 5 kts | 212° |
| 2026-04-25 17:43 | 62.55963 | 6.11373 | 71 ft | 7 kts | 206° |
| 2026-04-25 17:43 | 62.55921 | 6.11362 | 71 ft | 5 kts | 160° |
| 2026-04-25 17:43 | 62.55897 | 6.11387 | 71 ft | 2 kts | 154° |
| 2026-04-25 17:43 | 62.55891 | 6.11393 | 71 ft | 0 kts | 154° |